Time;durP1;ratioP1;P1;durP2;ratioP2;P2;SDS_P1;SDS_P2;PMS_P1;PMS_P2;Temp;Humidity;BMP_temperature;BMP_pressure;BME280_temperature;BME280_humidity;BME280_pressure;Samples;Min_cycle;Max_cycle;Signal;HPM_P1;HPM_P2
2022/06/05 00:01:05;;;;;;;9.23;6.32;;;;;;;20.14;74.21;94821.19;5053988;28;20235;-78
2022/06/05 00:03:38;;;;;;;9.40;6.22;;;;;;;20.10;74.28;94812.13;5041520;28;20199;-79
2022/06/05 00:06:13;;;;;;;6.82;5.72;;;;;;;20.32;73.56;94811.09;5054670;28;20192;-78
2022/06/05 00:08:57;;;;;;;11.10;6.05;;;;;;;20.47;73.16;94798.22;5054402;28;20184;-78
2022/06/05 00:11:24;;;;;;;12.50;6.78;;;;;;;20.50;72.96;94803.72;5054514;28;20223;-79
2022/06/05 00:13:55;;;;;;;9.13;6.35;;;;;;;20.50;72.59;94803.72;5053923;28;20243;-79
2022/06/05 00:16:25;;;;;;;12.48;6.32;;;;;;;20.51;72.35;94797.03;5053907;28;20203;-79
2022/06/05 00:18:53;;;;;;;6.88;4.90;;;;;;;20.54;71.53;94795.47;5054229;28;20238;-79
2022/06/05 00:21:20;;;;;;;8.15;5.03;;;;;;;20.62;71.92;94796.31;5040909;28;20277;-79
2022/06/05 00:23:50;;;;;;;9.02;4.90;;;;;;;20.65;72.19;94799.06;5054094;28;20301;-79
2022/06/05 00:26:27;;;;;;;11.18;4.90;;;;;;;20.56;72.06;94802.19;5054359;28;20277;-79
2022/06/05 00:29:07;;;;;;;6.55;4.68;;;;;;;20.34;72.85;94803.25;5053575;28;20195;-78
2022/06/05 00:31:41;;;;;;;10.90;5.00;;;;;;;20.20;73.09;94808.66;5053740;28;20231;-79
2022/06/05 00:34:08;;;;;;;10.68;5.07;;;;;;;20.00;74.63;94810.88;5053804;28;20227;-78
2022/06/05 00:36:47;;;;;;;7.47;5.03;;;;;;;19.91;74.85;94820.66;5053733;28;20200;-79
2022/06/05 00:39:20;;;;;;;12.75;5.78;;;;;;;19.69;76.00;94823.22;5042408;28;20196;-78
2022/06/05 00:41:58;;;;;;;7.65;5.03;;;;;;;19.64;76.48;94826.34;5053667;28;20326;-78
2022/06/05 00:44:31;;;;;;;9.40;6.05;;;;;;;19.56;77.47;94821.94;5053497;28;20326;-78
2022/06/05 00:46:59;;;;;;;13.38;6.75;;;;;;;19.57;77.63;94823.53;5053431;28;20261;-78
2022/06/05 00:49:33;;;;;;;10.38;6.70;;;;;;;19.62;77.59;94820.44;5053445;28;20749;-78
2022/06/05 00:52:00;;;;;;;6.95;4.65;;;;;;;19.81;76.99;94825.69;5040242;28;20207;-78
2022/06/05 00:54:27;;;;;;;11.77;5.88;;;;;;;19.85;77.05;94820.22;5052113;28;20219;-78
2022/06/05 00:56:53;;;;;;;11.05;6.28;;;;;;;19.82;77.11;94807.22;5053478;28;20219;-78
2022/06/05 00:59:21;;;;;;;9.90;6.00;;;;;;;19.92;76.83;94819.47;5053049;28;20228;-78
2022/06/05 01:01:51;;;;;;;11.52;6.35;;;;;;;20.00;76.56;94821.09;5053225;28;20275;-78
2022/06/05 01:04:19;;;;;;;13.68;7.85;;;;;;;20.05;76.44;94823.50;5053228;28;20220;-78
2022/06/05 01:06:46;;;;;;;14.07;5.18;;;;;;;20.17;75.96;94812.19;5053013;28;20726;-78
2022/06/05 01:09:13;;;;;;;8.88;5.60;;;;;;;20.20;75.74;94823.22;5052857;28;20254;-78
2022/06/05 01:11:51;;;;;;;10.63;5.30;;;;;;;20.12;76.00;94812.53;5052980;28;20231;-78
2022/06/05 01:14:25;;;;;;;10.05;5.40;;;;;;;19.96;76.53;94810.06;5052498;28;20232;-78
2022/06/05 01:17:00;;;;;;;12.07;6.10;;;;;;;20.10;76.63;94812.91;5053043;28;20278;-78
2022/06/05 01:19:42;;;;;;;13.55;7.40;;;;;;;19.97;76.40;94810.84;5052929;28;20539;-78
2022/06/05 01:22:32;;;;;;;8.20;4.55;;;;;;;19.87;76.57;94815.91;5052324;28;20227;-78
2022/06/05 01:25:13;;;;;;;11.20;6.70;;;;;;;19.83;76.46;94820.59;5052996;28;20275;-78
2022/06/05 01:27:48;;;;;;;7.57;4.88;;;;;;;19.79;76.29;94811.53;5052832;28;20254;-78
2022/06/05 01:30:18;;;;;;;8.05;4.70;;;;;;;19.79;76.03;94811.53;5052491;28;20967;-78
2022/06/05 01:32:54;;;;;;;7.25;6.03;;;;;;;19.70;76.75;94813.03;5052263;28;20219;-77
2022/06/05 01:35:27;;;;;;;11.90;6.38;;;;;;;19.57;77.47;94814.50;5052400;28;20218;-78
2022/06/05 01:37:59;;;;;;;11.95;4.82;;;;;;;19.40;77.96;94821.41;5052411;28;20191;-78
2022/06/05 01:40:30;;;;;;;10.10;5.68;;;;;;;19.42;78.05;94824.53;5033948;28;20922;-78
2022/06/05 01:43:02;;;;;;;12.07;5.25;;;;;;;19.48;78.25;94812.03;5044489;28;20281;-78
2022/06/05 01:45:37;;;;;;;9.55;4.40;;;;;;;19.60;77.80;94809.03;5051498;28;20227;-78
2022/06/05 01:48:07;;;;;;;7.25;4.50;;;;;;;19.67;77.53;94813.81;5051871;28;20234;-78
2022/06/05 01:50:40;;;;;;;10.55;5.72;;;;;;;19.72;77.25;94811.47;5052666;28;20196;-78
2022/06/05 01:53:11;;;;;;;9.02;6.10;;;;;;;19.78;76.90;94815.47;5051887;28;20227;-78
2022/06/05 01:55:44;;;;;;;11.18;6.85;;;;;;;19.73;77.14;94804.81;5052364;28;20265;-78
2022/06/05 01:58:15;;;;;;;10.50;5.95;;;;;;;19.73;77.06;94807.56;5051109;28;20228;-78
2022/06/05 02:00:44;;;;;;;9.57;6.57;;;;;;;19.79;76.58;94800.53;5051672;28;20551;-78
2022/06/05 02:03:17;;;;;;;13.52;6.50;;;;;;;19.84;76.35;94808.41;5051893;28;20227;-78
2022/06/05 02:05:49;;;;;;;9.32;5.82;;;;;;;19.83;76.65;94795.84;5051438;28;20219;-78
2022/06/05 02:08:20;;;;;;;10.32;6.40;;;;;;;19.93;76.88;94813.59;5038860;28;20199;-78
2022/06/05 02:10:53;;;;;;;7.30;5.57;;;;;;;19.95;76.99;94807.72;5052117;28;20297;-77
2022/06/05 02:13:21;;;;;;;12.93;6.85;;;;;;;19.88;77.01;94792.75;5051723;28;20231;-78
2022/06/05 02:15:48;;;;;;;6.70;4.90;;;;;;;19.79;76.93;94794.25;5052230;28;20207;-77
2022/06/05 02:18:16;;;;;;;7.80;4.82;;;;;;;19.85;76.08;94799.00;5051521;28;20565;-78
2022/06/05 02:20:43;;;;;;;10.98;5.28;;;;;;;19.81;76.46;94787.22;5051859;28;20292;-78
2022/06/05 02:23:15;;;;;;;10.55;6.32;;;;;;;19.62;77.37;94795.69;5051633;28;20199;-78
2022/06/05 02:25:42;;;;;;;9.35;6.30;;;;;;;19.26;78.52;94804.78;5051688;28;20245;-78
2022/06/05 02:28:13;;;;;;;10.77;5.75;;;;;;;19.13;79.11;94805.03;5051386;28;20231;-78
2022/06/05 02:30:46;;;;;;;8.80;6.60;;;;;;;18.92;80.52;94806.78;5051158;28;20767;-78
2022/06/05 02:33:24;;;;;;;7.22;4.78;;;;;;;18.91;81.27;94796.97;5051662;28;20716;-78
2022/06/05 02:36:01;;;;;;;7.72;5.35;;;;;;;19.04;80.70;94801.03;5037043;28;20231;-78
2022/06/05 02:38:42;;;;;;;10.90;5.60;;;;;;;19.02;80.92;94786.88;5051287;28;20219;-78
2022/06/05 02:41:17;;;;;;;12.95;4.88;;;;;;;18.91;81.42;94800.50;5051226;28;20231;-79
2022/06/05 02:46:43;;;;;;;10.70;5.70;;;;;;;19.11;80.46;94782.69;5055010;28;20261;-78
2022/06/05 02:49:17;;;;;;;6.88;5.25;;;;;;;19.18;79.99;94790.97;5050990;28;20198;-78
2022/06/05 02:51:46;;;;;;;7.20;5.10;;;;;;;19.24;79.54;94785.16;5050947;28;20693;-78
2022/06/05 02:54:20;;;;;;;8.93;6.13;;;;;;;19.18;79.50;94777.25;5050763;28;20384;-78
2022/06/05 02:56:47;;;;;;;8.77;6.65;;;;;;;19.18;79.22;94777.25;5050928;28;20280;-78
2022/06/05 02:59:14;;;;;;;8.32;4.82;;;;;;;19.20;79.36;94782.34;5051051;28;20240;-77
2022/06/05 03:04:27;;;;;;;9.20;5.10;;;;;;;19.22;79.03;94781.97;5050867;28;20202;-78
2022/06/05 03:06:54;;;;;;;12.80;7.47;;;;;;;19.29;78.97;94787.53;5051045;28;20223;-79
2022/06/05 03:09:20;;;;;;;14.73;9.88;;;;;;;19.42;78.34;94786.84;5050590;28;20231;-78
2022/06/05 03:11:47;;;;;;;15.80;8.60;;;;;;;19.56;78.39;94785.41;5051176;28;20203;-78
2022/06/05 03:14:14;;;;;;;13.00;9.38;;;;;;;19.75;77.80;94785.19;5048575;28;20228;-78
2022/06/05 03:16:42;;;;;;;12.07;7.47;;;;;;;20.02;76.66;94785.75;5044231;28;20203;-78
2022/06/05 03:19:10;;;;;;;12.98;6.65;;;;;;;20.28;75.20;94784.72;5037330;28;20661;-78
2022/06/05 03:21:38;;;;;;;12.48;7.15;;;;;;;20.39;74.79;94780.88;5042722;28;20297;-78
2022/06/05 03:24:06;;;;;;;9.40;5.05;;;;;;;20.63;73.94;94795.16;5050264;28;20741;-78
2022/06/05 03:26:33;;;;;;;11.98;5.97;;;;;;;20.61;73.78;94789.22;5039354;28;20633;-78
2022/06/05 03:29:00;;;;;;;13.85;8.70;;;;;;;21.35;71.67;94783.91;5048754;28;20230;-78
2022/06/05 03:31:27;;;;;;;10.15;7.10;;;;;;;21.98;69.38;94790.59;5041691;28;20251;-78
2022/06/05 03:33:56;;;;;;;11.80;6.80;;;;;;;22.73;67.09;94788.44;5049121;28;20196;-78
2022/06/05 03:36:22;;;;;;;10.85;6.78;;;;;;;23.35;64.57;94787.72;5042525;28;20224;-78
2022/06/05 03:38:50;;;;;;;9.35;6.20;;;;;;;23.85;62.73;94790.91;5042669;28;20215;-79
2022/06/05 03:41:17;;;;;;;10.68;6.68;;;;;;;24.35;61.26;94787.69;5042260;28;20231;-77
2022/06/05 03:43:45;;;;;;;9.60;5.75;;;;;;;24.38;60.90;94792.41;5041998;28;20219;-78
2022/06/05 03:46:14;;;;;;;8.90;5.57;;;;;;;24.80;59.71;94789.16;5041658;28;20188;-79
2022/06/05 03:48:42;;;;;;;7.28;6.15;;;;;;;25.77;57.48;94785.84;5040336;28;20219;-78
2022/06/05 03:51:13;;;;;;;8.05;6.13;;;;;;;26.36;55.32;94785.25;5040364;28;20188;-79
2022/06/05 03:53:40;;;;;;;10.82;6.57;;;;;;;26.87;53.30;94779.06;5038293;28;20233;-79
2022/06/05 03:56:12;;;;;;;10.35;6.03;;;;;;;26.83;53.82;94788.66;5050176;28;20200;-79
2022/06/05 03:58:39;;;;;;;11.57;6.10;;;;;;;27.35;52.39;94793.53;5050654;28;20265;-79
2022/06/05 04:01:08;;;;;;;9.30;6.22;;;;;;;27.98;50.79;94796.88;5048805;28;20227;-79
2022/06/05 04:03:36;;;;;;;10.55;6.25;;;;;;;28.24;50.13;94793.03;5039307;28;20265;-80
2022/06/05 04:06:06;;;;;;;11.07;6.38;;;;;;;27.94;50.26;94796.16;5050639;28;20239;-80
2022/06/05 04:08:34;;;;;;;7.88;6.50;;;;;;;27.26;52.13;94796.94;5050101;28;20203;-80
2022/06/05 04:11:04;;;;;;;8.90;6.00;;;;;;;27.14;52.42;94800.38;5050056;28;20237;-81
2022/06/05 04:13:30;;;;;;;8.75;5.82;;;;;;;28.12;50.29;94796.50;5050187;28;20322;-78
2022/06/05 04:15:57;;;;;;;9.65;6.20;;;;;;;28.47;49.36;94791.25;5050093;28;20204;-79
2022/06/05 04:18:24;;;;;;;8.68;6.55;;;;;;;28.21;49.52;94798.69;5050567;28;20208;-80
2022/06/05 04:20:51;;;;;;;8.90;6.97;;;;;;;29.73;46.08;94787.22;5049941;28;20718;-80
2022/06/05 04:23:18;;;;;;;8.57;6.45;;;;;;;30.14;45.30;94780.72;5049932;28;20316;-80
2022/06/05 04:25:46;;;;;;;10.18;6.35;;;;;;;30.06;45.19;94782.97;5049405;28;20788;-81
2022/06/05 04:28:13;;;;;;;9.27;5.45;;;;;;;30.73;44.33;94774.28;5049874;28;20219;-81
2022/06/05 04:30:41;;;;;;;8.18;5.80;;;;;;;30.65;43.86;94775.75;5054183;28;20211;-81
2022/06/05 04:33:08;;;;;;;8.48;6.07;;;;;;;31.06;43.17;94780.25;5052705;28;20211;-80
2022/06/05 04:35:36;;;;;;;10.85;6.32;;;;;;;31.78;42.04;94771.50;5053928;28;20250;-82
2022/06/05 04:38:04;;;;;;;12.07;5.95;;;;;;;32.51;40.90;94773.72;5053012;28;20712;-81
2022/06/05 04:40:30;;;;;;;10.60;6.05;;;;;;;32.53;40.83;94776.06;5052688;28;20733;-81
2022/06/05 04:42:58;;;;;;;11.25;6.25;;;;;;;33.22;39.16;94775.38;5053267;28;20348;-82
2022/06/05 04:45:25;;;;;;;9.55;5.95;;;;;;;32.12;40.55;94764.09;5053581;28;20196;-82
2022/06/05 04:47:52;;;;;;;11.93;7.30;;;;;;;31.19;42.07;94772.59;5053880;28;20220;-82
2022/06/05 04:50:19;;;;;;;14.35;6.80;;;;;;;30.25;44.01;94773.53;5053510;28;20220;-83
2022/06/05 04:52:46;;;;;;;10.95;6.78;;;;;;;30.51;43.95;94763.03;5052806;28;20224;-82
2022/06/05 04:55:13;;;;;;;8.27;6.43;;;;;;;31.05;42.57;94768.28;5040194;28;20249;-81
2022/06/05 04:57:40;;;;;;;12.13;7.05;;;;;;;31.89;41.30;94761.88;5053230;28;20224;-83
2022/06/05 05:00:09;;;;;;;11.63;6.72;;;;;;;32.42;39.79;94765.25;5031906;28;20224;-82
2022/06/05 05:02:36;;;;;;;10.20;7.15;;;;;;;32.44;39.78;94769.16;5047003;28;20690;-81
2022/06/05 05:05:03;;;;;;;9.73;6.20;;;;;;;32.44;39.95;94774.78;5052855;28;20357;-82
2022/06/05 05:07:30;;;;;;;8.18;6.97;;;;;;;31.84;40.65;94773.69;5054108;28;20254;-83
2022/06/05 05:09:57;;;;;;;9.45;6.68;;;;;;;31.65;41.50;94782.03;5053488;28;20245;-82
2022/06/05 05:12:23;;;;;;;11.57;6.35;;;;;;;31.86;41.00;94782.41;5053336;28;20242;-84
2022/06/05 05:14:50;;;;;;;11.02;6.43;;;;;;;32.80;39.66;94785.25;5053253;28;20669;-80
2022/06/05 05:17:18;;;;;;;10.70;6.60;;;;;;;32.31;39.72;94782.56;5053094;28;20569;-83
2022/06/05 05:19:45;;;;;;;9.27;6.20;;;;;;;32.34;40.20;94778.81;5052867;28;20267;-84
2022/06/05 05:22:12;;;;;;;9.63;6.40;;;;;;;33.68;38.48;94784.47;5052701;28;20243;-82
2022/06/05 05:24:39;;;;;;;11.23;6.82;;;;;;;33.02;38.22;94785.09;5053383;28;20216;-82
2022/06/05 05:27:06;;;;;;;9.70;6.53;;;;;;;33.01;38.41;94794.75;5053845;28;20207;-82
2022/06/05 05:29:33;;;;;;;8.68;6.00;;;;;;;34.27;36.53;94791.28;5052547;28;20688;-81
2022/06/05 05:32:00;;;;;;;10.98;6.35;;;;;;;35.28;34.80;94789.25;5052410;28;20308;-81
2022/06/05 05:34:28;;;;;;;14.55;6.68;;;;;;;33.32;38.03;94802.25;5052768;28;20266;-78
2022/06/05 05:36:55;;;;;;;11.27;6.32;;;;;;;34.06;37.08;94795.91;5052282;28;21671;-82
2022/06/05 05:42:06;;;;;;;13.00;7.00;;;;;;;31.78;40.93;94802.31;5052137;28;20272;-82
2022/06/05 05:44:35;;;;;;;8.80;6.03;;;;;;;31.17;42.22;94799.47;5053203;28;20212;-79
2022/06/05 05:47:02;;;;;;;10.30;7.00;;;;;;;31.40;41.66;94799.00;5052800;28;20267;-83
2022/06/05 05:49:30;;;;;;;7.85;5.85;;;;;;;32.46;40.19;94794.72;5052603;28;20253;-82
2022/06/05 05:51:57;;;;;;;10.15;6.68;;;;;;;32.03;40.43;94801.31;5052320;28;20505;-81
2022/06/05 05:54:24;;;;;;;10.63;6.60;;;;;;;32.12;40.39;94800.53;5053233;28;20227;-81
2022/06/05 05:56:52;;;;;;;11.82;7.00;;;;;;;30.36;43.46;94796.28;5052105;28;20220;-80
2022/06/05 05:59:19;;;;;;;9.95;6.40;;;;;;;32.82;39.71;94793.19;5051827;28;20203;-83
2022/06/05 06:01:47;;;;;;;10.95;6.75;;;;;;;32.49;39.66;94793.81;5038363;28;20625;-79
2022/06/05 06:04:14;;;;;;;10.70;6.93;;;;;;;32.40;39.99;94796.59;5052490;28;20286;-83
2022/06/05 06:06:44;;;;;;;8.77;6.40;;;;;;;33.56;39.12;94800.31;5051621;28;20275;-82
2022/06/05 06:09:12;;;;;;;11.00;6.60;;;;;;;34.33;37.40;94794.97;5052107;28;20245;-84
2022/06/05 06:11:39;;;;;;;9.10;6.68;;;;;;;34.97;36.37;94791.75;5052245;28;20204;-81
2022/06/05 06:14:09;;;;;;;11.50;6.78;;;;;;;34.58;37.14;94799.34;5051475;28;20251;-80
2022/06/05 06:16:36;;;;;;;12.18;6.78;;;;;;;30.88;42.85;94814.50;5052045;28;20215;-71
2022/06/05 06:19:04;;;;;;;13.55;6.93;;;;;;;32.07;41.87;94812.38;5051747;28;20286;-84
2022/06/05 06:21:32;;;;;;;17.55;8.15;;;;;;;31.65;42.25;94812.06;5051825;28;20286;-83
2022/06/05 06:24:01;;;;;;;13.02;6.88;;;;;;;33.16;40.17;94804.09;5051415;28;20250;-81
2022/06/05 06:26:28;;;;;;;10.07;7.07;;;;;;;32.05;41.58;94793.22;5051655;28;20204;-81
2022/06/05 06:28:55;;;;;;;10.98;7.28;;;;;;;33.11;40.17;94798.34;5051926;28;20196;-80
2022/06/05 06:31:22;;;;;;;13.82;7.82;;;;;;;33.47;39.99;94803.91;5051469;28;20227;-81
2022/06/05 06:33:50;;;;;;;10.75;6.80;;;;;;;34.07;38.50;94793.84;5051160;28;20749;-82
2022/06/05 06:36:18;;;;;;;10.18;7.00;;;;;;;32.00;42.99;94807.06;5051096;28;20254;-79
2022/06/05 06:38:45;;;;;;;10.18;7.95;;;;;;;31.44;44.61;94799.63;5050794;28;20219;-81
2022/06/05 06:41:16;;;;;;;7.05;5.78;;;;;;;29.36;47.96;94809.06;5051568;28;20612;-71
2022/06/05 06:43:44;;;;;;;9.95;7.22;;;;;;;30.34;46.14;94798.00;5050936;28;20223;-81
2022/06/05 06:46:11;;;;;;;10.50;6.93;;;;;;;30.83;46.01;94795.50;5051140;28;20302;-76
2022/06/05 06:48:38;;;;;;;10.55;7.78;;;;;;;31.25;44.77;94792.38;5051197;28;20644;-80
2022/06/05 06:51:08;;;;;;;14.63;7.30;;;;;;;33.15;41.45;94782.09;5050718;28;20666;-83
2022/06/05 06:53:36;;;;;;;10.50;7.03;;;;;;;30.46;45.95;94788.00;5031056;28;20216;-77
2022/06/05 06:56:07;;;;;;;10.20;6.90;;;;;;;30.46;45.95;94793.59;5044867;28;20718;-79
2022/06/05 06:58:36;;;;;;;12.68;6.93;;;;;;;30.67;45.76;94793.66;5051451;28;20320;-73
2022/06/05 07:01:02;;;;;;;8.82;7.10;;;;;;;29.28;49.08;94797.31;5050940;28;20601;-83
2022/06/05 07:03:30;;;;;;;13.07;7.45;;;;;;;30.25;47.27;94789.50;5051004;28;20231;-83
2022/06/05 07:05:57;;;;;;;8.20;6.47;;;;;;;30.83;46.02;94787.09;5050835;28;20196;-84
2022/06/05 07:08:24;;;;;;;8.82;6.90;;;;;;;30.97;45.67;94797.78;5050842;28;20269;-78
2022/06/05 07:10:51;;;;;;;9.25;6.85;;;;;;;30.87;45.52;94778.59;5051306;28;20208;-83
2022/06/05 07:13:17;;;;;;;9.77;7.13;;;;;;;31.34;44.67;94790.41;5050412;28;20277;-80
2022/06/05 07:15:46;;;;;;;13.70;6.90;;;;;;;30.62;45.55;94793.44;5050383;28;20277;-80
2022/06/05 07:18:13;;;;;;;9.57;6.68;;;;;;;32.72;43.23;94792.44;5051075;28;20265;-82
2022/06/05 07:20:42;;;;;;;9.15;6.38;;;;;;;32.57;42.66;94777.44;5050539;28;20701;-84
2022/06/05 07:23:10;;;;;;;7.35;5.95;;;;;;;30.19;45.69;94780.94;5050637;28;20235;-71
2022/06/05 07:25:38;;;;;;;8.75;6.18;;;;;;;29.86;47.30;94791.56;5050574;28;20608;-82
2022/06/05 07:28:06;;;;;;;9.30;6.13;;;;;;;30.51;46.59;94795.81;5050946;28;20199;-75
2022/06/05 07:30:33;;;;;;;7.00;5.75;;;;;;;31.32;44.86;94783.69;5051080;28;20199;-80
2022/06/05 07:33:01;;;;;;;10.57;6.15;;;;;;;31.00;45.55;94785.66;5050692;28;20636;-80
2022/06/05 07:35:28;;;;;;;7.93;5.55;;;;;;;30.66;45.38;94780.13;5050932;28;20266;-83
2022/06/05 07:37:55;;;;;;;7.20;5.60;;;;;;;30.35;45.60;94780.75;5050923;28;20288;-82
2022/06/05 07:40:22;;;;;;;6.18;5.38;;;;;;;29.81;48.13;94780.16;5037602;28;20211;-79
2022/06/05 07:42:48;;;;;;;9.02;5.63;;;;;;;29.97;46.76;94774.47;5050566;28;20240;-76
2022/06/05 07:45:16;;;;;;;8.75;5.90;;;;;;;30.04;46.71;94779.84;5050500;28;20740;-77
2022/06/05 07:47:44;;;;;;;13.15;5.82;;;;;;;29.66;47.43;94777.03;5050741;28;20227;-81
2022/06/05 07:50:14;;;;;;;8.48;5.63;;;;;;;29.67;47.03;94773.81;5050527;28;20295;-81
2022/06/05 07:55:26;;;;;;;8.77;5.65;;;;;;;29.80;46.69;94764.63;5050604;28;20265;-83
2022/06/05 07:57:52;;;;;;;6.03;5.20;;;;;;;29.54;48.32;94766.66;5050489;28;20282;-82
2022/06/05 08:00:21;;;;;;;6.22;5.13;;;;;;;30.34;46.20;94747.69;5050428;28;20219;-82
2022/06/05 08:02:48;;;;;;;7.63;5.32;;;;;;;29.55;47.70;94763.41;5049942;28;20690;-80
2022/06/05 08:05:16;;;;;;;7.70;5.32;;;;;;;29.20;48.23;94761.72;5054257;28;20695;-77
2022/06/05 08:07:43;;;;;;;6.28;5.28;;;;;;;29.27;48.65;94769.84;5054744;28;20277;-78
2022/06/05 08:10:11;;;;;;;7.50;5.53;;;;;;;29.84;47.76;94754.13;5054084;28;20299;-82
2022/06/05 08:12:38;;;;;;;5.68;5.03;;;;;;;30.00;46.38;94763.19;5054035;28;20204;-83
2022/06/05 08:15:08;;;;;;;7.63;4.70;;;;;;;30.78;43.94;94765.28;5053534;28;20643;-81
2022/06/05 08:17:37;;;;;;;5.88;4.72;;;;;;;30.03;46.02;94761.50;5053933;28;20243;-78
2022/06/05 08:20:04;;;;;;;7.93;5.10;;;;;;;29.59;46.90;94766.09;5054356;28;20220;-81
2022/06/05 08:22:33;;;;;;;8.50;5.40;;;;;;;29.77;46.73;94755.16;5054005;28;20674;-80
2022/06/05 08:24:59;;;;;;;7.25;5.43;;;;;;;28.85;48.69;94764.31;5054119;28;20261;-75
2022/06/05 08:27:27;;;;;;;9.85;5.13;;;;;;;28.79;47.93;94759.72;5054270;28;20246;-78
2022/06/05 08:29:56;;;;;;;10.52;5.75;;;;;;;29.00;48.58;94759.09;5053649;28;20713;-74
2022/06/05 08:32:24;;;;;;;7.70;5.32;;;;;;;29.26;46.42;94754.34;5053101;28;20199;-76
2022/06/05 08:34:51;;;;;;;6.40;5.28;;;;;;;29.62;46.65;94749.25;5053661;28;20227;-74
2022/06/05 08:43:16;;;;;;;7.68;4.68;;;;;;;29.61;46.93;94746.91;5053370;28;20242;-71
2022/06/05 08:45:50;;;;;;;5.82;4.60;;;;;;;29.11;46.97;94753.22;5039833;28;20281;-81
2022/06/05 08:48:21;;;;;;;8.35;4.70;;;;;;;29.75;45.58;94742.88;5052691;28;20246;-77
2022/06/05 08:50:50;;;;;;;5.03;4.00;;;;;;;29.80;45.31;94742.28;5053111;28;20204;-77
2022/06/05 08:53:22;;;;;;;6.93;4.20;;;;;;;30.08;44.26;94741.34;5053393;28;20259;-81
2022/06/05 08:55:53;;;;;;;6.63;4.20;;;;;;;30.28;43.86;94744.66;5053246;28;20241;-79
2022/06/05 08:58:27;;;;;;;6.97;4.00;;;;;;;30.53;43.66;94751.38;5053726;28;20247;-80
2022/06/05 09:01:00;;;;;;;7.43;4.25;;;;;;;31.03;42.66;94753.16;5052601;28;20250;-80
2022/06/05 09:03:33;;;;;;;7.10;3.55;;;;;;;30.90;39.08;94742.06;5033009;28;20216;-81
2022/06/05 09:06:04;;;;;;;6.78;3.20;;;;;;;31.08;40.91;94747.00;5048147;28;20234;-80
2022/06/05 09:08:34;;;;;;;6.85;3.30;;;;;;;31.39;37.49;94736.63;5053920;28;20204;-79
2022/06/05 09:11:06;;;;;;;4.10;3.10;;;;;;;30.92;39.29;94747.19;5052927;28;20269;-81
2022/06/05 09:13:40;;;;;;;4.60;3.10;;;;;;;31.17;39.55;94735.06;5052840;28;20235;-78
2022/06/05 09:16:12;;;;;;;4.38;2.97;;;;;;;31.28;37.07;94735.47;5053002;28;20223;-79
2022/06/05 09:18:44;;;;;;;4.07;3.30;;;;;;;31.84;37.66;94732.44;5052569;28;20302;-76
2022/06/05 09:21:25;;;;;;;8.00;3.13;;;;;;;31.97;39.28;94723.91;5052740;28;20540;-81
2022/06/05 09:24:04;;;;;;;9.00;3.75;;;;;;;31.46;38.53;94729.94;5053226;28;20234;-80
2022/06/05 09:26:42;;;;;;;4.32;2.97;;;;;;;31.58;37.35;94720.63;5052938;28;20233;-81
2022/06/05 09:29:22;;;;;;;5.55;3.17;;;;;;;31.64;35.98;94730.03;5052792;28;20216;-72
2022/06/05 09:32:04;;;;;;;3.13;2.80;;;;;;;31.04;37.92;94727.53;5052790;28;20282;-80
2022/06/05 09:34:35;;;;;;;5.78;2.72;;;;;;;31.24;37.03;94729.22;5052149;28;20231;-79
2022/06/05 09:37:09;;;;;;;4.30;3.00;;;;;;;31.05;37.67;94728.31;5052839;28;20211;-77
2022/06/05 09:39:42;;;;;;;4.50;3.15;;;;;;;31.54;35.63;94716.44;5052792;28;20228;-76
2022/06/05 09:42:25;;;;;;;3.53;2.90;;;;;;;30.38;37.76;94715.53;5052893;28;20281;-79
2022/06/05 09:45:03;;;;;;;4.30;2.78;;;;;;;30.26;37.95;94718.41;5052194;28;20247;-81
2022/06/05 09:47:37;;;;;;;5.25;3.28;;;;;;;31.06;37.32;94719.44;5052481;28;20227;-81
2022/06/05 09:50:18;;;;;;;3.95;3.20;;;;;;;30.72;37.57;94714.75;5052575;28;20227;-81
2022/06/05 09:52:45;;;;;;;5.20;2.78;;;;;;;29.96;38.22;94722.59;5052422;28;20196;-81
2022/06/05 09:55:19;;;;;;;6.10;2.83;;;;;;;30.24;38.25;94726.44;5052347;28;20224;-80
2022/06/05 10:00:51;;;;;;;3.25;2.90;;;;;;;30.39;38.11;94722.69;5052062;28;20198;-73
2022/06/05 10:03:21;;;;;;;3.97;3.05;;;;;;;30.48;38.30;94718.44;5051971;28;20227;-78
2022/06/05 10:06:14;;;;;;;4.70;3.28;;;;;;;30.66;37.09;94719.34;5051465;28;20294;-83
2022/06/05 10:08:44;;;;;;;5.32;2.95;;;;;;;30.75;37.17;94713.06;5042209;28;20261;-81
2022/06/05 10:11:24;;;;;;;5.65;2.90;;;;;;;30.60;37.54;94712.81;5052419;28;20560;-81
2022/06/05 10:14:04;;;;;;;4.55;2.80;;;;;;;31.00;36.54;94710.09;5051351;28;20242;-72
2022/06/05 10:16:38;;;;;;;5.20;3.13;;;;;;;31.43;37.02;94709.22;5031258;28;20671;-77
2022/06/05 10:19:28;;;;;;;4.80;3.40;;;;;;;31.38;37.08;94693.03;5046481;28;20196;-79
2022/06/05 10:22:04;;;;;;;4.38;3.15;;;;;;;31.67;37.18;94684.28;5051142;28;20231;-81
2022/06/05 10:24:45;;;;;;;4.82;3.03;;;;;;;30.32;37.07;94697.03;5051953;28;20310;-75
2022/06/05 10:27:16;;;;;;;4.38;2.88;;;;;;;30.86;37.18;94688.25;5050768;28;20223;-80
2022/06/05 10:29:50;;;;;;;6.88;3.28;;;;;;;31.96;36.79;94685.91;5051485;28;20287;-81
2022/06/05 10:32:26;;;;;;;4.15;2.90;;;;;;;31.39;36.52;94679.81;5051766;28;20633;-72
2022/06/05 10:35:00;;;;;;;5.38;3.13;;;;;;;30.50;37.42;94690.78;5051903;28;20195;-72
2022/06/05 10:37:34;;;;;;;5.95;3.28;;;;;;;30.29;37.83;94693.13;5051182;28;20583;-79
2022/06/05 10:40:14;;;;;;;4.10;3.13;;;;;;;30.78;37.67;94684.16;5051650;28;20225;-77
2022/06/05 10:42:52;;;;;;;7.05;3.78;;;;;;;30.49;38.39;94680.81;5051299;28;20263;-80
2022/06/05 10:45:31;;;;;;;7.13;3.25;;;;;;;30.45;38.17;94677.41;5050635;28;20249;-78
2022/06/05 10:48:10;;;;;;;5.10;3.33;;;;;;;30.48;38.73;94673.69;5050715;28;20231;-79
2022/06/05 10:50:47;;;;;;;5.22;3.42;;;;;;;30.32;39.18;94667.06;5051188;28;20275;-78
2022/06/05 10:53:19;;;;;;;3.55;3.25;;;;;;;30.69;39.08;94668.09;5050894;28;20219;-73
2022/06/05 10:55:59;;;;;;;5.88;3.78;;;;;;;30.70;38.68;94664.06;5051335;28;20239;-80
2022/06/05 10:58:34;;;;;;;5.10;3.00;;;;;;;31.01;38.27;94666.88;5050817;28;20208;-74
2022/06/05 11:01:20;;;;;;;3.67;3.15;;;;;;;31.30;37.29;94658.16;5050492;28;20214;-79
2022/06/05 11:03:56;;;;;;;4.88;3.20;;;;;;;31.35;37.29;94656.78;5050599;28;20215;-81
2022/06/05 11:06:35;;;;;;;4.35;3.08;;;;;;;31.38;37.74;94661.47;5051241;28;20237;-82
2022/06/05 11:09:26;;;;;;;5.68;3.45;;;;;;;32.02;36.31;94658.81;5051306;28;20228;-80
2022/06/05 11:15:03;;;;;;;4.15;3.58;;;;;;;32.87;36.01;94655.06;5038143;28;20242;-80
2022/06/05 11:17:42;;;;;;;4.53;3.40;;;;;;;32.38;35.02;94658.84;5050358;28;20200;-77
2022/06/05 11:20:15;;;;;;;8.98;2.78;;;;;;;32.45;34.79;94650.09;5051092;28;20297;-72
2022/06/05 11:22:48;;;;;;;5.63;2.92;;;;;;;31.52;37.07;94644.06;5050397;28;20254;-76
2022/06/05 11:25:23;;;;;;;4.45;2.75;;;;;;;31.27;35.50;94647.13;5050712;28;20293;-77
2022/06/05 11:28:00;;;;;;;8.38;2.55;;;;;;;31.43;34.61;94644.06;5038527;28;20192;-80
2022/06/05 11:30:41;;;;;;;4.80;2.40;;;;;;;31.82;33.98;94633.28;5050786;28;20249;-79
2022/06/05 11:33:21;;;;;;;3.05;2.00;;;;;;;31.36;33.09;94638.72;5050971;28;20196;-76
2022/06/05 11:36:09;;;;;;;1.88;1.52;;;;;;;32.27;32.52;94650.13;5050713;28;20277;-81
2022/06/05 11:38:45;;;;;;;5.15;2.10;;;;;;;32.72;31.86;94637.31;5053407;28;20235;-77
2022/06/05 11:41:23;;;;;;;2.83;2.08;;;;;;;31.65;32.64;94641.19;5054958;28;20234;-70
2022/06/05 11:44:06;;;;;;;6.25;2.60;;;;;;;30.80;35.76;94650.91;5054531;28;20614;-75
2022/06/05 11:46:38;;;;;;;6.18;2.85;;;;;;;30.69;36.03;94631.75;5054911;28;20230;-79
2022/06/05 11:49:14;;;;;;;5.82;3.13;;;;;;;31.31;36.14;94628.91;5054710;28;20700;-79
2022/06/05 11:51:57;;;;;;;4.88;2.00;;;;;;;31.84;31.17;94625.19;5054550;28;20226;-80
2022/06/05 11:54:29;;;;;;;4.15;1.77;;;;;;;31.66;30.31;94634.34;5054372;28;20193;-78
2022/06/05 11:57:09;;;;;;;2.45;1.40;;;;;;;31.70;31.01;94630.16;5042011;28;20199;-80
2022/06/05 11:59:44;;;;;;;1.20;1.10;;;;;;;30.66;30.98;94640.25;5054943;28;20196;-75
2022/06/05 12:02:39;;;;;;;2.42;1.50;;;;;;;29.83;32.14;94635.22;5054654;28;20294;-74
2022/06/05 12:05:16;;;;;;;2.60;1.23;;;;;;;30.20;32.04;94625.97;5042492;28;20548;-79
2022/06/05 12:07:45;;;;;;;3.10;1.33;;;;;;;30.29;32.49;94637.22;5054671;28;20224;-79
2022/06/05 12:10:19;;;;;;;2.72;1.40;;;;;;;29.93;33.23;94639.69;5054318;28;20224;-79
2022/06/05 12:12:51;;;;;;;2.72;1.67;;;;;;;29.79;34.47;94634.59;5054009;28;20643;-82